createdAt,value
2018-06-20T00:00:30.569Z,100897.00
2018-06-20T00:02:58.339Z,100904.00
2018-06-20T00:05:26.173Z,100901.00
2018-06-20T00:07:54.000Z,100905.00
2018-06-20T00:10:21.764Z,100908.00
2018-06-20T00:12:49.548Z,100904.00
2018-06-20T00:15:17.332Z,100901.00
2018-06-20T00:17:45.080Z,100896.00
2018-06-20T00:20:12.897Z,100896.00
2018-06-20T00:22:40.717Z,100896.00
2018-06-20T00:25:08.527Z,100898.00
2018-06-20T00:27:36.308Z,100899.00
2018-06-20T00:30:04.085Z,100898.00
2018-06-20T00:32:31.832Z,100900.00
2018-06-20T00:34:59.545Z,100902.00
2018-06-20T00:37:27.322Z,100901.00
2018-06-20T00:39:55.094Z,100895.00
2018-06-20T00:42:22.864Z,100895.00
2018-06-20T00:44:50.612Z,100893.00
2018-06-20T00:47:18.332Z,100897.00
2018-06-20T00:49:46.062Z,100900.00
2018-06-20T00:52:13.838Z,100890.00
2018-06-20T00:54:41.632Z,100898.00
2018-06-20T00:57:09.431Z,100897.00
2018-06-20T00:59:37.174Z,100898.00
2018-06-20T01:02:04.912Z,100894.00
2018-06-20T01:04:32.699Z,100891.00
2018-06-20T01:07:00.417Z,100905.00
2018-06-20T01:09:28.202Z,100903.00
2018-06-20T01:11:56.086Z,100906.00
2018-06-20T01:14:23.687Z,100896.00
2018-06-20T01:16:51.381Z,100902.00
2018-06-20T01:19:19.154Z,100895.00
2018-06-20T01:21:46.898Z,100901.00
2018-06-20T01:24:14.754Z,100905.00
2018-06-20T01:26:42.536Z,100891.00
2018-06-20T01:29:10.315Z,100904.00
2018-06-20T01:31:38.081Z,100896.00
2018-06-20T01:34:05.863Z,100899.00
2018-06-20T01:36:41.602Z,100904.00
2018-06-20T01:39:10.564Z,100904.00
2018-06-20T01:41:38.301Z,100904.00
2018-06-20T01:44:06.119Z,100897.00
2018-06-20T01:46:33.848Z,100909.00
2018-06-20T01:49:01.530Z,100908.00
2018-06-20T01:51:29.242Z,100906.00
2018-06-20T01:53:57.027Z,100905.00
2018-06-20T01:56:24.789Z,100902.00
2018-06-20T01:58:52.476Z,100909.00
2018-06-20T02:01:20.202Z,100900.00
2018-06-20T02:03:47.984Z,100903.00
2018-06-20T02:06:15.689Z,100906.00
2018-06-20T02:08:43.402Z,100900.00
2018-06-20T02:11:11.260Z,100897.00
2018-06-20T02:13:38.992Z,100898.00
2018-06-20T02:16:06.765Z,100901.00
2018-06-20T02:18:34.516Z,100904.00
2018-06-20T02:21:02.251Z,100906.00
2018-06-20T02:23:30.057Z,100907.00
2018-06-20T02:25:57.889Z,100906.00
2018-06-20T02:28:25.680Z,100905.00
2018-06-20T02:30:53.349Z,100904.00
2018-06-20T02:33:21.072Z,100903.00
2018-06-20T02:35:48.776Z,100907.00
2018-06-20T02:38:16.532Z,100900.00
2018-06-20T02:40:44.280Z,100904.00
2018-06-20T02:43:12.105Z,100904.00
2018-06-20T02:45:39.852Z,100905.00
2018-06-20T02:48:07.527Z,100904.00
2018-06-20T02:50:35.233Z,100899.00
2018-06-20T02:53:03.023Z,100903.00
2018-06-20T02:55:30.737Z,100901.00
2018-06-20T02:57:58.437Z,100897.00
2018-06-20T03:00:26.237Z,100909.00
2018-06-20T03:02:54.027Z,100903.00
2018-06-20T03:05:21.837Z,100902.00
2018-06-20T03:07:49.590Z,100899.00
2018-06-20T03:10:17.392Z,100892.00
2018-06-20T03:12:45.109Z,100895.00
2018-06-20T03:15:12.838Z,100892.00
2018-06-20T03:17:40.507Z,100896.00
2018-06-20T03:20:08.256Z,100898.00
2018-06-20T03:22:36.016Z,100902.00
2018-06-20T03:25:03.817Z,100901.00
2018-06-20T03:27:31.561Z,100904.00
2018-06-20T03:29:59.313Z,100910.00
2018-06-20T03:32:27.025Z,100901.00
2018-06-20T03:34:54.728Z,100904.00
2018-06-20T03:37:22.540Z,100905.00
2018-06-20T03:39:50.296Z,100912.00
2018-06-20T03:42:18.038Z,100903.00
2018-06-20T03:44:45.752Z,100907.00
2018-06-20T03:47:13.550Z,100903.00
2018-06-20T03:49:41.344Z,100896.00
2018-06-20T03:52:09.133Z,100895.00
2018-06-20T03:54:36.834Z,100908.00
2018-06-20T03:57:04.854Z,100906.00
2018-06-20T03:59:32.524Z,100903.00
2018-06-20T04:02:00.259Z,100899.00
2018-06-20T04:04:27.977Z,100904.00
2018-06-20T04:06:55.718Z,100892.00
2018-06-20T04:09:23.458Z,100899.00
2018-06-20T04:11:51.137Z,100895.00
2018-06-20T04:14:18.826Z,100900.00
2018-06-20T04:16:46.613Z,100898.00
2018-06-20T04:19:14.416Z,100892.00
2018-06-20T04:21:42.270Z,100906.00
2018-06-20T04:24:09.992Z,100897.00
2018-06-20T04:26:37.677Z,100901.00
2018-06-20T04:29:05.492Z,100890.00
2018-06-20T04:31:33.213Z,100903.00
2018-06-20T04:34:00.971Z,100896.00
2018-06-20T04:36:28.737Z,100894.00
2018-06-20T04:38:56.443Z,100897.00
2018-06-20T04:41:24.149Z,100889.00
2018-06-20T04:43:51.884Z,100891.00
2018-06-20T04:46:19.624Z,100892.00
2018-06-20T04:48:47.348Z,100882.00
2018-06-20T04:51:15.088Z,100882.00
2018-06-20T04:53:42.803Z,100890.00
2018-06-20T04:56:10.611Z,100892.00
2018-06-20T04:58:38.355Z,100893.00
2018-06-20T05:01:06.118Z,100892.00
2018-06-20T05:03:33.868Z,100887.00
2018-06-20T05:06:01.611Z,100897.00
2018-06-20T05:08:29.336Z,100903.00
2018-06-20T05:10:57.147Z,100900.00
2018-06-20T05:13:24.851Z,100904.00
2018-06-20T05:15:52.578Z,100897.00
2018-06-20T05:18:20.289Z,100890.00
2018-06-20T05:20:48.025Z,100897.00
2018-06-20T05:23:15.776Z,100899.00
2018-06-20T05:25:43.520Z,100912.00
2018-06-20T05:28:11.472Z,100905.00
2018-06-20T05:30:39.177Z,100912.00
2018-06-20T05:33:06.846Z,100909.00
2018-06-20T05:35:34.517Z,100916.00
2018-06-20T05:38:02.289Z,100913.00
2018-06-20T05:40:29.993Z,100922.00
2018-06-20T05:42:57.758Z,100927.00
2018-06-20T05:45:25.505Z,100913.00
2018-06-20T05:47:53.325Z,100915.00
2018-06-20T05:50:21.087Z,100921.00
2018-06-20T05:52:48.800Z,100930.00
2018-06-20T05:55:16.575Z,100919.00
2018-06-20T05:57:44.334Z,100919.00
2018-06-20T06:00:12.135Z,100913.00
2018-06-20T06:02:39.972Z,100908.00
2018-06-20T06:05:21.136Z,100911.00
2018-06-20T06:07:48.943Z,100900.00
2018-06-20T06:10:17.963Z,100910.00
2018-06-20T06:12:46.649Z,100872.00
2018-06-20T06:15:14.377Z,100867.00
2018-06-20T06:17:42.556Z,100860.00
2018-06-20T06:20:10.894Z,100854.00
2018-06-20T06:22:39.122Z,100855.00
2018-06-20T06:25:07.170Z,100847.00
2018-06-20T06:27:34.980Z,100835.00
2018-06-20T06:30:02.947Z,100835.00
2018-06-20T06:32:30.793Z,100809.00
2018-06-20T06:34:58.681Z,100813.00
2018-06-20T06:37:26.384Z,100808.00
2018-06-20T06:39:54.130Z,100812.00
2018-06-20T06:42:21.962Z,100798.00
2018-06-20T06:44:49.763Z,100789.00
2018-06-20T06:47:17.621Z,100794.00
2018-06-20T06:49:45.452Z,100786.00
2018-06-20T06:52:13.321Z,100805.00
2018-06-20T06:54:41.242Z,100813.00
2018-06-20T06:57:09.045Z,100806.00
2018-06-20T06:59:36.817Z,100811.00
2018-06-20T07:02:04.619Z,100797.00
2018-06-20T07:04:32.462Z,100861.00
2018-06-20T07:07:00.214Z,100895.00
2018-06-20T07:09:28.540Z,100899.00
2018-06-20T07:11:56.315Z,100891.00
2018-06-20T07:14:24.146Z,100897.00
2018-06-20T07:16:51.956Z,100894.00
2018-06-20T07:19:19.751Z,100886.00
2018-06-20T07:21:47.545Z,100883.00
2018-06-20T07:24:15.416Z,100881.00
2018-06-20T07:26:43.309Z,100868.00
2018-06-20T07:29:11.113Z,100868.00
2018-06-20T07:31:38.877Z,100876.00
2018-06-20T07:34:06.683Z,100873.00
2018-06-20T07:36:34.463Z,100875.00
2018-06-20T07:39:02.329Z,100866.00
2018-06-20T07:41:30.055Z,100875.00
2018-06-20T07:43:57.799Z,100872.00
2018-06-20T07:46:25.681Z,100868.00
2018-06-20T07:48:53.609Z,100864.00
2018-06-20T07:51:21.406Z,100869.00
2018-06-20T07:53:49.212Z,100871.00
2018-06-20T07:56:17.009Z,100868.00
2018-06-20T07:58:50.440Z,100872.00
2018-06-20T08:01:41.723Z,100872.00
2018-06-20T08:07:15.833Z,100861.00
2018-06-20T08:09:49.448Z,100860.00
2018-06-20T08:12:22.962Z,100852.00
2018-06-20T08:14:56.364Z,100850.00
2018-06-20T08:17:29.900Z,100850.00
2018-06-20T08:19:59.457Z,100845.00
2018-06-20T08:22:27.710Z,100845.00
2018-06-20T08:25:04.283Z,100826.00
2018-06-20T08:27:33.097Z,100839.00
2018-06-20T08:30:02.201Z,100846.00
2018-06-20T08:32:30.346Z,100831.00
2018-06-20T08:34:58.165Z,100837.00
2018-06-20T08:37:25.969Z,100827.00
2018-06-20T08:39:53.733Z,100832.00
2018-06-20T08:42:22.009Z,100830.00
2018-06-20T08:44:49.833Z,100828.00
2018-06-20T08:47:17.642Z,100839.00
2018-06-20T08:49:45.430Z,100830.00
2018-06-20T08:52:13.254Z,100825.00
2018-06-20T08:54:41.141Z,100834.00
2018-06-20T08:57:08.987Z,100818.00
2018-06-20T08:59:36.855Z,100829.00
2018-06-20T09:02:04.890Z,100817.00
2018-06-20T09:04:38.526Z,100825.00
2018-06-20T09:07:11.999Z,100827.00
2018-06-20T09:09:45.397Z,100818.00
2018-06-20T09:12:18.889Z,100821.00
2018-06-20T09:14:52.443Z,100803.00
2018-06-20T09:17:26.048Z,100810.00
2018-06-20T09:19:55.104Z,100815.00
2018-06-20T09:22:22.837Z,100798.00
2018-06-20T09:24:50.600Z,100806.00
2018-06-20T09:27:18.363Z,100799.00
2018-06-20T09:29:46.209Z,100785.00
2018-06-20T09:32:14.743Z,100791.00
2018-06-20T09:34:42.845Z,100793.00
2018-06-20T09:37:10.610Z,100783.00
2018-06-20T09:39:38.493Z,100788.00
2018-06-20T09:42:06.277Z,100775.00
2018-06-20T09:44:34.087Z,100769.00
2018-06-20T09:47:01.892Z,100768.00
2018-06-20T09:49:29.731Z,100759.00
2018-06-20T09:51:57.615Z,100757.00
2018-06-20T09:54:25.681Z,100748.00
2018-06-20T09:56:53.425Z,100756.00
2018-06-20T09:59:26.932Z,100750.00
2018-06-20T10:02:20.212Z,100753.00
2018-06-20T10:04:53.809Z,100741.00
2018-06-20T10:07:24.126Z,100770.00
2018-06-20T10:09:59.478Z,100769.00
2018-06-20T10:12:33.075Z,100759.00
2018-06-20T10:15:00.890Z,100746.00
2018-06-20T10:17:28.701Z,100721.00
2018-06-20T10:19:56.483Z,100741.00
2018-06-20T10:22:24.308Z,100739.00
2018-06-20T10:24:52.116Z,100739.00
2018-06-20T10:27:19.911Z,100733.00
2018-06-20T10:29:47.758Z,100720.00
2018-06-20T10:32:15.533Z,100722.00
2018-06-20T10:34:43.386Z,100719.00
2018-06-20T10:37:11.205Z,100727.00
2018-06-20T10:39:38.920Z,100722.00
2018-06-20T10:42:06.661Z,100712.00
2018-06-20T10:44:34.456Z,100715.00
2018-06-20T10:47:08.074Z,100711.00
2018-06-20T10:49:35.865Z,100697.00
2018-06-20T10:52:03.665Z,100712.00
2018-06-20T10:54:31.449Z,100713.00
2018-06-20T10:57:04.950Z,100698.00
2018-06-20T10:59:38.276Z,100703.00
2018-06-20T11:02:11.808Z,100684.00
2018-06-20T11:05:47.960Z,100696.00
2018-06-20T11:08:21.359Z,100690.00
2018-06-20T11:10:55.108Z,100682.00
2018-06-20T11:13:22.981Z,100688.00
2018-06-20T11:15:50.771Z,100670.00
2018-06-20T11:18:18.564Z,100668.00
2018-06-20T11:20:52.016Z,100664.00
2018-06-20T11:23:19.794Z,100663.00
2018-06-20T11:25:47.578Z,100658.00
2018-06-20T11:28:15.910Z,100659.00
2018-06-20T11:30:44.772Z,100651.00
2018-06-20T11:33:12.893Z,100656.00
2018-06-20T11:35:40.729Z,100644.00
2018-06-20T11:38:08.553Z,100636.00
2018-06-20T11:40:36.284Z,100636.00
2018-06-20T11:43:04.441Z,100636.00
2018-06-20T11:45:37.948Z,100623.00
2018-06-20T11:48:05.794Z,100622.00
2018-06-20T11:50:33.609Z,100615.00
2018-06-20T11:53:05.493Z,100605.00
2018-06-20T11:55:37.305Z,100601.00
2018-06-20T11:58:11.665Z,100606.00
2018-06-20T12:00:45.220Z,100616.00
2018-06-20T12:03:18.786Z,100613.00
2018-06-20T12:05:52.645Z,100607.00
2018-06-20T12:08:26.255Z,100605.00
2018-06-20T12:11:19.740Z,100600.00
2018-06-20T12:14:03.849Z,100596.00
2018-06-20T12:16:47.901Z,100598.00
2018-06-20T12:19:23.499Z,100599.00
2018-06-20T12:21:57.226Z,100591.00
2018-06-20T12:24:41.716Z,100598.00
2018-06-20T12:27:21.620Z,100591.00
2018-06-20T12:29:55.052Z,100571.00
2018-06-20T12:32:28.661Z,100576.00
2018-06-20T12:35:02.263Z,100574.00
2018-06-20T12:37:35.824Z,100576.00
2018-06-20T12:40:06.884Z,100582.00
2018-06-20T12:42:40.360Z,100567.00
2018-06-20T12:45:10.866Z,100557.00
2018-06-20T12:47:46.596Z,100566.00
2018-06-20T12:50:18.305Z,100547.00
2018-06-20T12:52:46.858Z,100544.00
2018-06-20T12:55:14.652Z,100537.00
2018-06-20T12:57:42.552Z,100530.00
2018-06-20T13:00:10.387Z,100525.00
2018-06-20T13:02:38.145Z,100535.00
2018-06-20T13:05:05.948Z,100526.00
2018-06-20T13:07:33.711Z,100521.00
2018-06-20T13:10:01.497Z,100526.00
2018-06-20T13:12:29.255Z,100525.00
2018-06-20T13:14:57.069Z,100526.00
2018-06-20T13:17:24.865Z,100517.00
2018-06-20T13:19:52.608Z,100517.00
2018-06-20T13:22:20.355Z,100506.00
2018-06-20T13:24:48.129Z,100507.00
2018-06-20T13:27:21.809Z,100507.00
2018-06-20T13:29:54.221Z,100508.00
2018-06-20T13:32:27.861Z,100496.00
2018-06-20T13:35:01.314Z,100505.00
2018-06-20T13:37:34.877Z,100493.00
2018-06-20T13:40:08.513Z,100486.00
2018-06-20T13:42:42.121Z,100490.00
2018-06-20T13:45:15.468Z,100495.00
2018-06-20T13:47:49.035Z,100477.00
2018-06-20T13:50:16.729Z,100472.00
2018-06-20T13:52:44.443Z,100486.00
2018-06-20T13:55:15.514Z,100476.00
2018-06-20T13:57:43.844Z,100479.00
2018-06-20T14:00:11.585Z,100469.00
2018-06-20T14:02:39.309Z,100462.00
2018-06-20T14:05:07.105Z,100473.00
2018-06-20T14:07:34.849Z,100461.00
2018-06-20T14:10:02.685Z,100450.00
2018-06-20T14:12:30.449Z,100456.00
2018-06-20T14:14:58.189Z,100454.00
2018-06-20T14:17:26.130Z,100457.00
2018-06-20T14:19:59.621Z,100450.00
2018-06-20T14:22:27.292Z,100450.00
2018-06-20T14:24:55.099Z,100444.00
2018-06-20T14:27:22.856Z,100457.00
2018-06-20T14:29:50.654Z,100441.00
2018-06-20T14:32:24.196Z,100440.00
2018-06-20T14:34:57.484Z,100443.00
2018-06-20T14:37:31.060Z,100429.00
2018-06-20T14:40:04.681Z,100423.00
2018-06-20T14:42:38.330Z,100431.00
2018-06-20T14:45:11.865Z,100429.00
2018-06-20T14:47:39.675Z,100425.00
2018-06-20T14:50:07.488Z,100427.00
2018-06-20T14:52:35.317Z,100425.00
2018-06-20T14:55:03.057Z,100422.00
2018-06-20T14:57:30.736Z,100409.00
2018-06-20T14:59:58.492Z,100409.00
2018-06-20T15:02:26.301Z,100404.00
2018-06-20T15:04:54.080Z,100402.00
2018-06-20T15:07:21.877Z,100392.00
2018-06-20T15:09:49.724Z,100392.00
2018-06-20T15:12:17.493Z,100390.00
2018-06-20T15:14:45.299Z,100387.00
2018-06-20T15:17:18.793Z,100382.00
2018-06-20T15:19:46.565Z,100377.00
2018-06-20T15:22:14.333Z,100386.00
2018-06-20T15:24:42.074Z,100383.00
2018-06-20T15:27:15.699Z,100380.00
2018-06-20T15:29:49.318Z,100383.00
2018-06-20T15:32:22.844Z,100365.00
2018-06-20T15:34:56.393Z,100367.00
2018-06-20T15:37:29.892Z,100363.00
2018-06-20T15:39:57.666Z,100359.00
2018-06-20T15:42:25.444Z,100355.00
2018-06-20T15:44:53.152Z,100355.00
2018-06-20T15:47:20.831Z,100350.00
2018-06-20T15:49:48.631Z,100346.00
2018-06-20T15:52:16.372Z,100340.00
2018-06-20T15:54:44.172Z,100352.00
2018-06-20T15:57:12.008Z,100341.00
2018-06-20T15:59:39.792Z,100342.00
2018-06-20T16:02:07.611Z,100338.00
2018-06-20T16:04:35.419Z,100343.00
2018-06-20T16:07:03.218Z,100341.00
2018-06-20T16:09:36.725Z,100340.00
2018-06-20T16:12:04.559Z,100340.00
2018-06-20T16:14:32.321Z,100339.00
2018-06-20T16:17:00.053Z,100342.00
2018-06-20T16:19:33.691Z,100336.00
2018-06-20T16:22:07.317Z,100323.00
2018-06-20T16:24:40.797Z,100340.00
2018-06-20T16:27:14.413Z,100321.00
2018-06-20T16:29:47.784Z,100323.00
2018-06-20T16:32:15.552Z,100330.00
2018-06-20T16:34:43.345Z,100330.00
2018-06-20T16:37:11.174Z,100330.00
2018-06-20T16:39:39.009Z,100321.00
2018-06-20T16:42:06.816Z,100321.00
2018-06-20T16:44:34.551Z,100315.00
2018-06-20T16:47:02.322Z,100315.00
2018-06-20T16:49:30.118Z,100308.00
2018-06-20T16:51:57.881Z,100316.00
2018-06-20T16:54:25.654Z,100305.00
2018-06-20T16:56:53.412Z,100311.00
2018-06-20T16:59:21.231Z,100302.00
2018-06-20T17:01:54.616Z,100297.00
2018-06-20T17:04:22.393Z,100296.00
2018-06-20T17:06:50.240Z,100290.00
2018-06-20T17:09:18.024Z,100291.00
2018-06-20T17:11:50.433Z,100288.00
2018-06-20T17:14:23.924Z,100280.00
2018-06-20T17:16:57.530Z,100284.00
2018-06-20T17:19:31.082Z,100274.00
2018-06-20T17:22:04.519Z,100276.00
2018-06-20T17:24:38.212Z,100276.00
2018-06-20T17:27:05.901Z,100269.00
2018-06-20T17:29:33.732Z,100266.00
2018-06-20T17:32:01.476Z,100263.00
2018-06-20T17:34:29.308Z,100257.00
2018-06-20T17:36:57.097Z,100262.00
2018-06-20T17:39:25.260Z,100252.00
2018-06-20T17:47:52.910Z,100259.00
2018-06-20T17:50:41.541Z,100256.00
2018-06-20T17:53:37.065Z,100263.00
2018-06-20T17:56:04.827Z,100254.00
2018-06-20T17:58:35.980Z,100243.00
2018-06-20T18:01:09.329Z,100244.00
2018-06-20T18:03:37.328Z,100242.00
2018-06-20T18:06:11.021Z,100241.00
2018-06-20T18:08:44.671Z,100248.00
2018-06-20T18:11:16.093Z,100234.00
2018-06-20T18:13:49.450Z,100244.00
2018-06-20T18:16:23.022Z,100236.00
2018-06-20T18:18:50.849Z,100236.00
2018-06-20T18:21:18.625Z,100226.00
2018-06-20T18:23:46.464Z,100233.00
2018-06-20T18:26:14.213Z,100239.00
2018-06-20T18:28:41.917Z,100229.00
2018-06-20T18:31:09.622Z,100238.00
2018-06-20T18:33:37.292Z,100234.00
2018-06-20T18:36:04.999Z,100230.00
2018-06-20T18:38:32.704Z,100235.00
2018-06-20T18:41:00.420Z,100234.00
2018-06-20T18:43:28.158Z,100229.00
2018-06-20T18:45:55.892Z,100236.00
2018-06-20T18:48:26.044Z,100232.00
2018-06-20T18:50:54.272Z,100231.00
2018-06-20T18:53:21.976Z,100229.00
2018-06-20T18:55:49.767Z,100226.00
2018-06-20T18:58:23.115Z,100225.00
2018-06-20T19:00:56.565Z,100225.00
2018-06-20T19:03:29.907Z,100225.00
2018-06-20T19:06:03.497Z,100224.00
2018-06-20T19:08:36.866Z,100227.00
2018-06-20T19:11:04.620Z,100222.00
2018-06-20T19:13:32.369Z,100229.00
2018-06-20T19:16:00.149Z,100226.00
2018-06-20T19:18:28.102Z,100220.00
2018-06-20T19:20:56.073Z,100216.00
2018-06-20T19:23:23.961Z,100221.00
2018-06-20T19:25:52.120Z,100222.00
2018-06-20T19:28:19.937Z,100219.00
2018-06-20T19:30:47.744Z,100221.00
2018-06-20T19:33:15.498Z,100227.00
2018-06-20T19:35:43.263Z,100222.00
2018-06-20T19:38:11.049Z,100222.00
2018-06-20T19:40:38.744Z,100219.00
2018-06-20T19:43:06.535Z,100220.00
2018-06-20T19:45:34.249Z,100226.00
2018-06-20T19:48:02.088Z,100224.00
2018-06-20T19:50:29.873Z,100228.00
2018-06-20T19:52:57.619Z,100226.00
2018-06-20T19:55:25.387Z,100226.00
2018-06-20T19:57:53.233Z,100227.00
2018-06-20T20:00:20.967Z,100227.00
2018-06-20T20:02:48.673Z,100220.00
2018-06-20T20:05:16.508Z,100213.00
2018-06-20T20:07:44.270Z,100218.00
2018-06-20T20:10:12.045Z,100214.00
2018-06-20T20:12:39.818Z,100210.00
2018-06-20T20:15:07.552Z,100212.00
2018-06-20T20:17:35.351Z,100207.00
2018-06-20T20:20:03.170Z,100211.00
2018-06-20T20:22:30.899Z,100206.00
2018-06-20T20:24:58.686Z,100199.00
2018-06-20T20:27:26.495Z,100208.00
2018-06-20T20:29:54.156Z,100201.00
2018-06-20T20:32:21.930Z,100205.00
2018-06-20T20:34:49.640Z,100198.00
2018-06-20T20:37:17.449Z,100194.00
2018-06-20T20:39:45.204Z,100194.00
2018-06-20T20:42:13.004Z,100202.00
2018-06-20T20:44:40.895Z,100191.00
2018-06-20T20:47:08.697Z,100187.00
2018-06-20T20:49:36.460Z,100190.00
2018-06-20T20:52:04.235Z,100195.00
2018-06-20T20:54:31.989Z,100192.00
2018-06-20T20:56:59.782Z,100180.00
2018-06-20T20:59:27.571Z,100186.00
2018-06-20T21:01:55.301Z,100182.00
2018-06-20T21:04:23.115Z,100179.00
2018-06-20T21:06:50.967Z,100186.00
2018-06-20T21:09:18.648Z,100179.00
2018-06-20T21:11:46.449Z,100177.00
2018-06-20T21:17:15.752Z,100182.00
2018-06-20T21:20:00.765Z,100178.00
2018-06-20T21:22:58.086Z,100170.00
2018-06-20T21:31:30.033Z,100158.00
2018-06-20T21:33:57.803Z,100153.00
2018-06-20T21:36:38.938Z,100157.00
2018-06-20T21:39:08.817Z,100148.00
2018-06-20T21:41:36.616Z,100147.00
2018-06-20T21:44:04.366Z,100149.00
2018-06-20T21:46:32.136Z,100149.00
2018-06-20T21:49:01.968Z,100145.00
2018-06-20T21:51:29.777Z,100151.00
2018-06-20T21:53:57.533Z,100155.00
2018-06-20T21:56:29.014Z,100153.00
2018-06-20T21:58:56.741Z,100144.00
2018-06-20T22:04:28.092Z,100140.00
2018-06-20T22:06:55.909Z,100137.00
2018-06-20T22:09:23.611Z,100136.00
2018-06-20T22:11:51.468Z,100137.00
2018-06-20T22:14:19.238Z,100127.00
2018-06-20T22:16:46.977Z,100122.00
2018-06-20T22:19:14.748Z,100125.00
2018-06-20T22:21:42.559Z,100117.00
2018-06-20T22:24:10.375Z,100115.00
2018-06-20T22:26:38.188Z,100105.00
2018-06-20T22:29:05.910Z,100108.00
2018-06-20T22:31:33.600Z,100111.00
2018-06-20T22:34:01.320Z,100111.00
2018-06-20T22:36:29.039Z,100111.00
2018-06-20T22:38:56.757Z,100106.00
2018-06-20T22:41:24.505Z,100102.00
2018-06-20T22:43:52.226Z,100104.00
2018-06-20T22:46:19.936Z,100109.00
2018-06-20T22:48:47.764Z,100104.00
2018-06-20T22:51:15.557Z,100105.00
2018-06-20T22:53:43.285Z,100102.00
2018-06-20T22:56:11.069Z,100100.00
2018-06-20T22:58:38.816Z,100097.00
2018-06-20T23:01:06.562Z,100110.00
2018-06-20T23:03:34.322Z,100107.00
2018-06-20T23:06:02.072Z,100100.00
2018-06-20T23:08:29.813Z,100100.00
2018-06-20T23:10:57.625Z,100102.00
2018-06-20T23:13:25.382Z,100098.00
2018-06-20T23:15:53.083Z,100094.00
2018-06-20T23:21:31.442Z,100091.00
2018-06-20T23:23:59.187Z,100088.00
2018-06-20T23:26:26.944Z,100089.00
2018-06-20T23:28:54.697Z,100088.00
2018-06-20T23:31:22.423Z,100084.00
2018-06-20T23:33:50.160Z,100079.00
2018-06-20T23:36:17.882Z,100082.00
2018-06-20T23:38:46.437Z,100081.00
2018-06-20T23:41:14.332Z,100073.00
2018-06-20T23:43:42.777Z,100070.00
2018-06-20T23:46:10.719Z,100067.00
2018-06-20T23:48:38.458Z,100065.00
2018-06-20T23:51:06.597Z,100059.00
2018-06-20T23:53:34.352Z,100057.00
2018-06-20T23:56:02.120Z,100060.00
2018-06-20T23:58:29.824Z,100051.00
